createdAt,value
2023-02-15T00:00:21.385Z,101261.69
2023-02-15T00:02:48.329Z,101250.53
2023-02-15T00:05:15.501Z,101254.44
2023-02-15T00:07:46.967Z,101247.88
2023-02-15T00:10:19.248Z,101249.53
2023-02-15T00:16:08.073Z,101238.16
2023-02-15T00:18:46.313Z,101245.03
2023-02-15T00:21:13.223Z,101227.47
2023-02-15T00:26:30.776Z,101242.03
2023-02-15T00:29:04.467Z,101239.00
2023-02-15T00:31:38.589Z,101241.38
2023-02-15T00:34:13.186Z,101235.94
2023-02-15T00:36:40.520Z,101251.66
2023-02-15T00:39:07.621Z,101236.47
2023-02-15T00:41:38.087Z,101237.25
2023-02-15T00:44:05.880Z,101241.16
2023-02-15T00:46:33.798Z,101242.53
2023-02-15T00:49:01.013Z,101235.91
2023-02-15T00:51:28.200Z,101231.66
2023-02-15T00:53:55.614Z,101232.34
2023-02-15T00:56:23.050Z,101236.16
2023-02-15T00:58:51.435Z,101237.66
2023-02-15T01:01:20.757Z,101230.91
2023-02-15T01:03:48.490Z,101232.56
2023-02-15T01:06:37.281Z,101235.00
2023-02-15T01:09:11.531Z,101223.28
2023-02-15T01:11:38.335Z,101228.16
2023-02-15T01:15:04.157Z,101235.16
2023-02-15T01:17:33.926Z,101226.91
2023-02-15T01:20:30.397Z,101229.66
2023-02-15T01:23:01.122Z,101228.41
2023-02-15T01:25:36.663Z,101221.63
2023-02-15T01:28:08.138Z,101225.22
2023-02-15T01:30:39.811Z,101222.56
2023-02-15T01:33:08.220Z,101223.94
2023-02-15T01:35:37.761Z,101221.22
2023-02-15T01:38:04.728Z,101214.91
2023-02-15T01:40:31.795Z,101219.47
2023-02-15T01:42:59.986Z,101218.31
2023-02-15T01:45:29.893Z,101224.38
2023-02-15T01:48:04.951Z,101217.47
2023-02-15T01:50:37.960Z,101222.94
2023-02-15T01:53:14.346Z,101214.78
2023-02-15T01:55:47.807Z,101211.63
2023-02-15T01:58:16.169Z,101215.47
2023-02-15T02:00:45.158Z,101213.00
2023-02-15T02:03:13.690Z,101209.34
2023-02-15T02:05:42.182Z,101207.03
2023-02-15T02:08:10.256Z,101206.78
2023-02-15T02:10:37.617Z,101204.13
2023-02-15T02:13:07.672Z,101199.41
2023-02-15T02:15:47.563Z,101198.94
2023-02-15T02:18:42.298Z,101203.03
2023-02-15T02:22:08.585Z,101209.09
2023-02-15T02:25:11.895Z,101206.66
2023-02-15T02:27:45.101Z,101194.59
2023-02-15T02:30:49.701Z,101189.25
2023-02-15T02:33:43.329Z,101195.72
2023-02-15T02:36:23.601Z,101189.34
2023-02-15T02:39:08.803Z,101194.97
2023-02-15T02:41:50.731Z,101188.22
2023-02-15T02:44:26.274Z,101178.06
2023-02-15T02:47:00.663Z,101184.22
2023-02-15T02:49:37.417Z,101179.03
2023-02-15T02:52:27.710Z,101179.91
2023-02-15T02:54:59.352Z,101171.94
2023-02-15T03:00:21.711Z,101169.88
2023-02-15T03:02:56.267Z,101173.59
2023-02-15T03:05:31.105Z,101161.47
2023-02-15T03:08:05.447Z,101170.72
2023-02-15T03:11:00.534Z,101175.81
2023-02-15T03:13:28.651Z,101172.34
2023-02-15T03:16:08.537Z,101169.19
2023-02-15T03:18:46.994Z,101164.59
2023-02-15T03:21:16.442Z,101177.00
2023-02-15T03:23:46.269Z,101175.31
2023-02-15T03:26:14.605Z,101169.00
2023-02-15T03:28:50.582Z,101172.41
2023-02-15T03:31:24.571Z,101173.44
2023-02-15T03:33:57.841Z,101175.81
2023-02-15T03:36:37.603Z,101177.88
2023-02-15T03:39:14.541Z,101178.81
2023-02-15T03:41:55.610Z,101187.31
2023-02-15T03:44:30.494Z,101181.63
2023-02-15T03:47:07.006Z,101185.53
2023-02-15T03:49:42.956Z,101184.72
2023-02-15T03:52:14.799Z,101187.09
2023-02-15T03:54:43.172Z,101179.63
2023-02-15T03:57:16.515Z,101178.81
2023-02-15T04:03:30.215Z,101181.25
2023-02-15T04:06:01.528Z,101181.44
2023-02-15T04:08:32.860Z,101186.44
2023-02-15T04:11:16.340Z,101168.44
2023-02-15T04:13:44.150Z,101172.78
2023-02-15T04:16:11.176Z,101177.06
2023-02-15T04:18:42.285Z,101179.00
2023-02-15T04:21:09.514Z,101187.19
2023-02-15T04:23:37.890Z,101177.16
2023-02-15T04:26:05.610Z,101180.25
2023-02-15T04:28:32.535Z,101178.97
2023-02-15T04:30:59.383Z,101175.81
2023-02-15T04:33:26.553Z,101165.69
2023-02-15T04:35:53.513Z,101162.72
2023-02-15T04:38:20.396Z,101164.84
2023-02-15T04:40:52.575Z,101165.91
2023-02-15T04:43:19.437Z,101168.91
2023-02-15T04:45:49.568Z,101172.03
2023-02-15T04:48:17.028Z,101164.75
2023-02-15T04:50:44.181Z,101167.47
2023-02-15T04:53:12.202Z,101164.50
2023-02-15T04:55:39.244Z,101162.06
2023-02-15T04:58:07.986Z,101158.44
2023-02-15T05:00:34.850Z,101165.47
2023-02-15T05:03:02.020Z,101165.69
2023-02-15T05:05:28.969Z,101167.19
2023-02-15T05:07:55.819Z,101163.91
2023-02-15T05:10:22.931Z,101171.88
2023-02-15T05:12:50.373Z,101160.38
2023-02-15T05:15:18.982Z,101160.84
2023-02-15T05:17:45.837Z,101146.69
2023-02-15T05:20:13.065Z,101153.25
2023-02-15T05:22:39.910Z,101159.00
2023-02-15T05:25:07.304Z,101153.81
2023-02-15T05:27:34.288Z,101163.06
2023-02-15T05:30:01.309Z,101174.34
2023-02-15T05:32:30.132Z,101159.84
2023-02-15T05:34:57.099Z,101158.94
2023-02-15T05:37:24.073Z,101156.66
2023-02-15T05:39:50.945Z,101147.88
2023-02-15T05:42:17.758Z,101150.41
2023-02-15T05:44:44.626Z,101149.13
2023-02-15T05:47:11.668Z,101151.72
2023-02-15T05:49:39.948Z,101143.81
2023-02-15T05:52:06.944Z,101140.59
2023-02-15T05:54:33.755Z,101136.25
2023-02-15T05:57:00.758Z,101142.34
2023-02-15T05:59:27.698Z,101160.06
2023-02-15T06:01:55.226Z,101153.66
2023-02-15T06:04:22.308Z,101159.34
2023-02-15T06:06:50.548Z,101165.47
2023-02-15T06:09:17.775Z,101171.69
2023-02-15T06:11:44.986Z,101162.53
2023-02-15T06:14:12.261Z,101167.91
2023-02-15T06:16:39.359Z,101178.75
2023-02-15T06:19:06.256Z,101172.50
2023-02-15T06:21:33.382Z,101176.53
2023-02-15T06:24:01.876Z,101182.31
2023-02-15T06:26:29.002Z,101184.31
2023-02-15T06:28:55.773Z,101187.28
2023-02-15T06:31:23.048Z,101192.53
2023-02-15T06:34:48.868Z,101184.00
2023-02-15T06:37:15.899Z,101198.34
2023-02-15T06:39:44.170Z,101185.09
2023-02-15T06:42:18.364Z,101187.19
2023-02-15T06:44:46.671Z,101186.97
2023-02-15T06:47:13.680Z,101190.84
2023-02-15T06:49:40.868Z,101188.94
2023-02-15T06:52:22.225Z,101196.84
2023-02-15T06:54:53.775Z,101197.47
2023-02-15T06:57:29.829Z,101191.31
2023-02-15T06:59:56.981Z,101203.50
2023-02-15T07:02:24.156Z,101199.69
2023-02-15T07:04:51.015Z,101206.13
2023-02-15T07:07:18.887Z,101207.03
2023-02-15T07:09:47.464Z,101214.13
2023-02-15T07:12:16.750Z,101209.59
2023-02-15T07:14:43.496Z,101210.72
2023-02-15T07:17:32.649Z,101211.81
2023-02-15T07:19:57.110Z,101204.03
2023-02-15T07:22:25.508Z,101206.19
2023-02-15T07:24:52.344Z,101207.59
2023-02-15T07:27:20.707Z,101207.97
2023-02-15T07:29:47.661Z,101212.53
2023-02-15T07:32:15.288Z,101205.25
2023-02-15T07:34:42.146Z,101204.31
2023-02-15T07:37:09.025Z,101200.53
2023-02-15T07:39:36.101Z,101196.13
2023-02-15T07:42:03.422Z,101200.59
2023-02-15T07:44:32.937Z,101197.94
2023-02-15T07:47:08.050Z,101193.38
2023-02-15T07:49:35.376Z,101209.94
2023-02-15T07:52:05.154Z,101203.72
2023-02-15T07:54:34.390Z,101199.81
2023-02-15T07:57:02.646Z,101205.56
2023-02-15T07:59:29.641Z,101208.22
2023-02-15T08:01:57.972Z,101206.00
2023-02-15T08:04:25.684Z,101208.75
2023-02-15T08:06:54.500Z,101209.25
2023-02-15T08:09:24.369Z,101207.97
2023-02-15T08:11:51.241Z,101213.31
2023-02-15T08:14:22.594Z,101205.47
2023-02-15T08:16:51.884Z,101216.19
2023-02-15T08:19:23.626Z,101222.72
2023-02-15T08:21:53.377Z,101215.97
2023-02-15T08:24:23.687Z,101215.44
2023-02-15T08:26:51.861Z,101212.88
2023-02-15T08:29:22.573Z,101205.50
2023-02-15T08:31:53.392Z,101216.34
2023-02-15T08:34:21.966Z,101216.56
2023-02-15T08:36:48.895Z,101213.78
2023-02-15T08:43:09.421Z,101203.00
2023-02-15T08:45:39.754Z,101200.25
2023-02-15T08:48:08.199Z,101203.63
2023-02-15T08:50:39.104Z,101203.69
2023-02-15T08:53:10.237Z,101190.97
2023-02-15T08:56:28.439Z,101197.97
2023-02-15T08:59:47.111Z,101189.44
2023-02-15T09:02:17.080Z,101189.63
2023-02-15T09:10:28.945Z,101182.63
2023-02-15T09:18:16.886Z,101181.88
2023-02-15T09:20:46.686Z,101175.16
2023-02-15T09:23:25.495Z,101182.25
2023-02-15T09:26:12.146Z,101173.97
2023-02-15T09:28:41.611Z,101164.69
2023-02-15T09:31:13.930Z,101164.50
2023-02-15T09:34:02.390Z,101161.94
2023-02-15T09:36:41.178Z,101160.03
2023-02-15T09:39:43.209Z,101171.22
2023-02-15T09:42:47.183Z,101164.50
2023-02-15T09:45:28.867Z,101156.47
2023-02-15T09:48:20.488Z,101158.16
2023-02-15T09:51:13.453Z,101154.91
2023-02-15T09:54:04.510Z,101144.91
2023-02-15T09:57:21.630Z,101148.69
2023-02-15T10:00:08.548Z,101158.03
2023-02-15T10:10:24.982Z,101150.56
2023-02-15T10:16:42.107Z,101137.91
2023-02-15T10:19:41.840Z,101152.13
2023-02-15T10:26:01.238Z,101143.03
2023-02-15T10:29:10.509Z,101147.16
2023-02-15T10:32:40.893Z,101152.94
2023-02-15T10:36:28.706Z,101141.53
2023-02-15T10:39:39.424Z,101143.44
2023-02-15T10:42:29.180Z,101140.84
2023-02-15T10:45:17.525Z,101133.78
2023-02-15T10:49:22.436Z,101130.81
2023-02-15T10:52:52.745Z,101131.91
2023-02-15T11:00:24.253Z,101119.53
2023-02-15T11:07:25.425Z,101116.59
2023-02-15T11:11:33.734Z,101112.09
2023-02-15T11:15:36.968Z,101102.47
2023-02-15T11:23:06.835Z,101110.94
2023-02-15T11:25:38.345Z,101110.56
2023-02-15T11:29:00.606Z,101110.50
2023-02-15T11:32:31.237Z,101109.34
2023-02-15T11:35:40.193Z,101106.31
2023-02-15T11:38:23.112Z,101105.06
2023-02-15T11:41:21.354Z,101103.78
2023-02-15T11:43:57.590Z,101093.09
2023-02-15T11:46:25.150Z,101097.03
2023-02-15T11:48:53.599Z,101089.13
2023-02-15T11:51:24.217Z,101089.16
2023-02-15T11:53:52.599Z,101097.16
2023-02-15T11:56:24.743Z,101101.94
2023-02-15T11:58:57.891Z,101093.34
2023-02-15T12:01:33.266Z,101081.78
2023-02-15T12:04:11.383Z,101080.56
2023-02-15T12:06:47.590Z,101077.47
2023-02-15T12:09:30.797Z,101072.09
2023-02-15T12:12:23.022Z,101057.56
2023-02-15T12:15:08.786Z,101055.16
2023-02-15T12:17:42.360Z,101055.22
2023-02-15T12:20:31.885Z,101043.03
2023-02-15T12:23:03.789Z,101063.41
2023-02-15T12:25:38.362Z,101047.16
2023-02-15T12:28:23.877Z,101040.00
2023-02-15T12:30:54.333Z,101042.38
2023-02-15T12:33:30.891Z,101029.19
2023-02-15T12:36:10.411Z,101028.03
2023-02-15T12:38:38.665Z,101028.94
2023-02-15T12:41:25.206Z,101036.72
2023-02-15T12:44:14.302Z,101026.59
2023-02-15T12:46:59.008Z,101026.84
2023-02-15T12:49:27.417Z,101017.69
2023-02-15T12:51:57.781Z,101020.25
2023-02-15T13:01:17.862Z,100999.53
2023-02-15T13:03:59.108Z,100989.13
2023-02-15T13:06:30.782Z,100989.13
2023-02-15T13:09:14.006Z,100983.34
2023-02-15T13:11:47.611Z,100981.28
2023-02-15T13:14:21.887Z,100973.25
2023-02-15T13:16:59.943Z,100971.06
2023-02-15T13:19:45.006Z,100974.06
2023-02-15T13:22:17.777Z,100959.22
2023-02-15T13:24:59.113Z,100952.03
2023-02-15T13:28:18.231Z,100949.25
2023-02-15T13:30:49.872Z,100946.22
2023-02-15T13:33:26.059Z,100951.94
2023-02-15T13:36:35.964Z,100937.38
2023-02-15T13:39:18.929Z,100936.47
2023-02-15T13:42:02.160Z,100926.63
2023-02-15T13:45:00.308Z,100917.00
2023-02-15T13:47:46.293Z,100916.34
2023-02-15T13:50:39.143Z,100913.13
2023-02-15T13:53:36.502Z,100908.94
2023-02-15T13:56:17.893Z,100905.81
2023-02-15T13:59:11.003Z,100906.41
2023-02-15T14:01:53.202Z,100920.63
2023-02-15T14:05:16.091Z,100909.25
2023-02-15T14:08:00.924Z,100917.16
2023-02-15T14:10:46.404Z,100913.81
2023-02-15T14:14:07.442Z,100907.63
2023-02-15T14:17:05.769Z,100899.09
2023-02-15T14:19:41.848Z,100905.59
2023-02-15T14:22:25.431Z,100894.09
2023-02-15T14:25:17.743Z,100908.78
2023-02-15T14:28:00.137Z,100898.09
2023-02-15T14:30:37.847Z,100897.59
2023-02-15T14:33:26.362Z,100899.81
2023-02-15T14:35:56.743Z,100899.44
2023-02-15T14:38:48.064Z,100896.44
2023-02-15T14:41:26.967Z,100896.44
2023-02-15T14:44:09.153Z,100899.91
2023-02-15T14:47:13.794Z,100892.34
2023-02-15T14:49:49.241Z,100900.78
2023-02-15T14:52:16.068Z,100908.34
2023-02-15T14:55:01.516Z,100901.63
2023-02-15T14:57:35.727Z,100898.25
2023-02-15T15:00:47.230Z,100892.06
2023-02-15T15:03:25.822Z,100896.91
2023-02-15T15:06:02.240Z,100898.94
2023-02-15T15:08:38.108Z,100899.25
2023-02-15T15:11:44.193Z,100891.88
2023-02-15T15:14:42.276Z,100891.38
2023-02-15T15:17:22.601Z,100895.34
2023-02-15T15:20:01.322Z,100887.78
2023-02-15T15:22:32.696Z,100884.59
2023-02-15T15:25:01.080Z,100889.81
2023-02-15T15:27:50.516Z,100889.97
2023-02-15T15:30:49.933Z,100887.28
2023-02-15T15:33:55.291Z,100889.44
2023-02-15T15:37:17.020Z,100893.94
2023-02-15T15:40:36.994Z,100894.91
2023-02-15T15:44:05.489Z,100885.13
2023-02-15T15:47:01.590Z,100889.13
2023-02-15T15:49:35.607Z,100891.31
2023-02-15T15:52:11.567Z,100887.63
2023-02-15T15:54:44.990Z,100885.78
2023-02-15T15:57:25.247Z,100891.16
2023-02-15T15:59:55.072Z,100883.41
2023-02-15T16:02:22.529Z,100883.56
2023-02-15T16:04:50.103Z,100882.72
2023-02-15T16:07:27.267Z,100883.03
2023-02-15T16:10:00.397Z,100884.03
2023-02-15T16:12:32.953Z,100890.41
2023-02-15T16:15:14.174Z,100876.09
2023-02-15T16:17:45.916Z,100881.78
2023-02-15T16:20:20.999Z,100884.06
2023-02-15T16:22:53.551Z,100882.31
2023-02-15T16:25:42.920Z,100893.22
2023-02-15T16:28:13.776Z,100896.69
2023-02-15T16:30:41.885Z,100890.94
2023-02-15T16:33:11.695Z,100899.47
2023-02-15T16:35:41.903Z,100904.28
2023-02-15T16:38:11.708Z,100901.25
2023-02-15T16:40:53.698Z,100891.25
2023-02-15T16:43:29.565Z,100896.22
2023-02-15T16:46:05.968Z,100898.13
2023-02-15T16:48:41.189Z,100896.06
2023-02-15T16:51:09.454Z,100899.34
2023-02-15T16:53:38.151Z,100898.00
2023-02-15T16:56:06.812Z,100903.25
2023-02-15T16:58:44.003Z,100907.69
2023-02-15T17:01:15.435Z,100908.03
2023-02-15T17:03:43.640Z,100907.00
2023-02-15T17:06:22.301Z,100916.47
2023-02-15T17:08:50.470Z,100924.38
2023-02-15T17:11:21.006Z,100917.09
2023-02-15T17:14:19.807Z,100916.00
2023-02-15T17:16:50.371Z,100914.50
2023-02-15T17:19:26.599Z,100920.56
2023-02-15T17:21:57.053Z,100925.69
2023-02-15T17:24:36.493Z,100919.75
2023-02-15T17:27:12.954Z,100915.13
2023-02-15T17:29:47.580Z,100919.66
2023-02-15T17:32:20.399Z,100923.91
2023-02-15T17:35:07.822Z,100921.94
2023-02-15T17:37:48.162Z,100933.78
2023-02-15T17:40:24.533Z,100929.56
2023-02-15T17:42:52.368Z,100929.56
2023-02-15T17:45:23.299Z,100929.56
2023-02-15T17:47:51.103Z,100934.72
2023-02-15T17:50:23.317Z,100933.16
2023-02-15T17:53:00.169Z,100928.50
2023-02-15T17:55:27.615Z,100936.97
2023-02-15T17:57:54.408Z,100929.50
2023-02-15T18:00:22.806Z,100929.47
2023-02-15T18:02:49.717Z,100923.25
2023-02-15T18:05:17.319Z,100922.22
2023-02-15T18:07:44.437Z,100926.28
2023-02-15T18:10:15.496Z,100928.22
2023-02-15T18:12:42.547Z,100934.09
2023-02-15T18:15:12.330Z,100934.34
2023-02-15T18:17:45.652Z,100936.56
2023-02-15T18:20:20.111Z,100932.47
2023-02-15T18:22:47.951Z,100934.75
2023-02-15T18:25:24.283Z,100936.16
2023-02-15T18:27:52.824Z,100936.88
2023-02-15T18:30:24.574Z,100947.03
2023-02-15T18:32:56.107Z,100944.09
2023-02-15T18:35:28.364Z,100948.69
2023-02-15T18:37:56.161Z,100946.53
2023-02-15T18:40:27.974Z,100935.28
2023-02-15T18:43:08.504Z,100937.59
2023-02-15T18:45:57.988Z,100937.78
2023-02-15T18:48:27.192Z,100931.28
2023-02-15T18:51:15.493Z,100926.13
2023-02-15T18:54:02.377Z,100929.31
2023-02-15T19:04:01.781Z,100913.47
2023-02-15T19:06:29.520Z,100915.31
2023-02-15T19:08:56.449Z,100914.78
2023-02-15T19:11:24.375Z,100919.47
2023-02-15T19:13:52.612Z,100907.09
2023-02-15T19:16:37.327Z,100907.47
2023-02-15T19:19:08.825Z,100910.66
2023-02-15T19:21:36.194Z,100913.19
2023-02-15T19:24:08.327Z,100908.78
2023-02-15T19:27:25.607Z,100914.47
2023-02-15T19:29:54.661Z,100913.78
2023-02-15T19:32:22.061Z,100910.72
2023-02-15T19:34:51.579Z,100904.63
2023-02-15T19:37:26.413Z,100910.53
2023-02-15T19:39:53.881Z,100906.63
2023-02-15T19:42:23.976Z,100901.25
2023-02-15T19:44:53.914Z,100900.47
2023-02-15T19:49:00.866Z,100904.72
2023-02-15T19:51:46.712Z,100907.06
2023-02-15T19:54:29.058Z,100902.56
2023-02-15T19:56:57.398Z,100901.47
2023-02-15T19:59:27.664Z,100901.41
2023-02-15T20:01:55.611Z,100900.78
2023-02-15T20:04:23.201Z,100901.59
2023-02-15T20:06:55.568Z,100901.91
2023-02-15T20:09:26.238Z,100909.25
2023-02-15T20:11:53.497Z,100906.19
2023-02-15T20:14:21.433Z,100902.94
2023-02-15T20:16:53.069Z,100903.00
2023-02-15T20:19:34.988Z,100914.19
2023-02-15T20:22:03.622Z,100907.34
2023-02-15T20:25:13.022Z,100898.94
2023-02-15T20:27:40.492Z,100904.16
2023-02-15T20:30:16.167Z,100899.72
2023-02-15T20:32:43.209Z,100907.88
2023-02-15T20:35:14.916Z,100904.47
2023-02-15T20:37:45.479Z,100905.41
2023-02-15T20:40:20.119Z,100905.59
2023-02-15T20:42:47.246Z,100901.72
2023-02-15T20:45:20.972Z,100905.81
2023-02-15T20:47:49.966Z,100897.44
2023-02-15T20:50:20.788Z,100905.03
2023-02-15T20:52:53.444Z,100898.59
2023-02-15T20:55:24.318Z,100902.25
2023-02-15T20:57:52.079Z,100910.50
2023-02-15T21:00:22.439Z,100901.63
2023-02-15T21:02:51.789Z,100900.66
2023-02-15T21:05:21.852Z,100899.56
2023-02-15T21:07:52.607Z,100905.84
2023-02-15T21:10:22.611Z,100899.09
2023-02-15T21:12:53.964Z,100905.03
2023-02-15T21:15:30.101Z,100893.91
2023-02-15T21:18:00.576Z,100886.91
2023-02-15T21:20:30.819Z,100882.78
2023-02-15T21:23:04.693Z,100873.75
2023-02-15T21:25:36.376Z,100881.72
2023-02-15T21:28:04.670Z,100887.91
2023-02-15T21:30:32.845Z,100883.41
2023-02-15T21:33:00.105Z,100896.22
2023-02-15T21:35:31.497Z,100895.00
2023-02-15T21:37:59.837Z,100891.09
2023-02-15T21:40:30.024Z,100884.66
2023-02-15T21:42:59.631Z,100887.94
2023-02-15T21:45:26.550Z,100891.44
2023-02-15T21:48:00.936Z,100893.84
2023-02-15T21:50:32.068Z,100892.41
2023-02-15T21:53:00.814Z,100896.38
2023-02-15T21:55:27.691Z,100897.22
2023-02-15T21:57:54.973Z,100903.53
2023-02-15T22:00:24.915Z,100909.72
2023-02-15T22:02:55.685Z,100913.44
2023-02-15T22:05:27.337Z,100917.47
2023-02-15T22:07:54.195Z,100918.13
2023-02-15T22:10:23.920Z,100914.03
2023-02-15T22:13:05.291Z,100912.00
2023-02-15T22:15:37.477Z,100923.97
2023-02-15T22:18:05.796Z,100924.09
2023-02-15T22:20:32.628Z,100916.38
2023-02-15T22:23:44.710Z,100906.72
2023-02-15T22:26:20.284Z,100911.06
2023-02-15T22:28:47.228Z,100921.84
2023-02-15T22:31:20.589Z,100913.88
2023-02-15T22:33:47.536Z,100904.06
2023-02-15T22:36:23.899Z,100904.38
2023-02-15T22:38:50.729Z,100904.88
2023-02-15T22:41:30.029Z,100910.19
2023-02-15T22:43:58.061Z,100906.97
2023-02-15T22:46:26.237Z,100900.78
2023-02-15T22:48:53.701Z,100914.00
2023-02-15T22:51:23.279Z,100917.34
2023-02-15T22:53:50.916Z,100924.34
2023-02-15T22:56:26.770Z,100918.78
2023-02-15T22:59:00.431Z,100918.78
2023-02-15T23:01:31.988Z,100916.75
2023-02-15T23:04:00.598Z,100916.66
2023-02-15T23:06:29.875Z,100931.75
2023-02-15T23:08:56.691Z,100930.03
2023-02-15T23:11:24.850Z,100926.66
2023-02-15T23:13:51.717Z,100927.38
2023-02-15T23:16:19.155Z,100934.38
2023-02-15T23:18:47.499Z,100931.47
2023-02-15T23:21:21.260Z,100932.34
2023-02-15T23:23:52.362Z,100937.16
2023-02-15T23:26:26.927Z,100938.16
2023-02-15T23:28:56.788Z,100943.84
2023-02-15T23:31:28.033Z,100942.41
2023-02-15T23:33:56.168Z,100940.97
2023-02-15T23:36:30.409Z,100931.88
2023-02-15T23:39:00.757Z,100928.97
2023-02-15T23:41:30.536Z,100924.75
2023-02-15T23:44:02.773Z,100926.88
2023-02-15T23:46:39.429Z,100919.09
2023-02-15T23:49:10.759Z,100933.00
2023-02-15T23:51:37.528Z,100940.03
2023-02-15T23:54:04.934Z,100934.38
2023-02-15T23:56:33.298Z,100937.03
2023-02-15T23:59:01.533Z,100934.63
